Time;durP1;ratioP1;P1;durP2;ratioP2;P2;SDS_P1;SDS_P2;PMS_P1;PMS_P2;Temp;Humidity;BMP_temperature;BMP_pressure;BME280_temperature;BME280_humidity;BME280_pressure;Samples;Min_cycle;Max_cycle;Signal;HPM_P1;HPM_P2
2022/07/22 00:00:09;;;;;;;27.00;22.95;;;21.30;99.90;;;;;;5012567;28;20399;-67
2022/07/22 00:02:36;;;;;;;28.45;22.05;;;21.30;99.90;;;;;;5007951;28;20052;-67
2022/07/22 00:05:04;;;;;;;25.08;22.48;;;21.30;99.90;;;;;;5010943;28;20070;-67
2022/07/22 00:07:31;;;;;;;28.70;23.85;;;21.20;99.90;;;;;;5013271;28;20065;-67
2022/07/22 00:09:58;;;;;;;27.45;22.13;;;21.20;99.90;;;;;;5008414;28;20130;-68
2022/07/22 00:12:25;;;;;;;30.77;22.75;;;21.20;99.90;;;;;;5000115;28;20449;-68
2022/07/22 00:14:52;;;;;;;25.23;22.63;;;21.20;99.90;;;;;;5010195;28;20129;-67
2022/07/22 00:17:18;;;;;;;25.00;21.33;;;21.20;99.90;;;;;;4999648;28;20401;-68
2022/07/22 00:19:45;;;;;;;23.45;20.92;;;21.10;99.90;;;;;;5011815;28;20065;-67
2022/07/22 00:22:12;;;;;;;28.88;23.25;;;21.10;99.90;;;;;;5012195;28;20096;-68
2022/07/22 00:24:39;;;;;;;33.72;24.88;;;21.10;99.90;;;;;;5006973;28;20152;-69
2022/07/22 00:27:06;;;;;;;25.90;22.80;;;21.10;99.90;;;;;;4999533;28;20081;-67
2022/07/22 00:29:33;;;;;;;26.90;24.33;;;21.10;99.90;;;;;;5002795;28;20508;-67
2022/07/22 00:32:00;;;;;;;26.63;23.80;;;21.10;99.90;;;;;;5011734;28;20104;-66
2022/07/22 00:34:27;;;;;;;33.03;24.80;;;21.10;99.90;;;;;;5010045;28;20037;-66
2022/07/22 00:36:54;;;;;;;24.23;21.58;;;21.10;99.90;;;;;;5011861;28;20038;-69
2022/07/22 00:39:21;;;;;;;30.60;23.77;;;21.00;99.90;;;;;;4996128;28;20072;-68
2022/07/22 00:41:49;;;;;;;29.38;24.25;;;21.00;99.90;;;;;;5009691;28;20107;-68
2022/07/22 00:44:17;;;;;;;35.47;27.20;;;21.00;99.90;;;;;;5009297;28;20038;-66
2022/07/22 00:46:44;;;;;;;29.85;26.08;;;21.00;99.90;;;;;;5007753;28;20080;-71
2022/07/22 00:49:11;;;;;;;29.02;25.33;;;21.00;99.90;;;;;;5009817;28;20062;-66
2022/07/22 00:51:39;;;;;;;33.50;26.15;;;21.00;99.90;;;;;;5010100;28;20104;-66
2022/07/22 00:54:07;;;;;;;36.72;24.55;;;21.00;99.90;;;;;;5009374;28;20050;-67
2022/07/22 00:56:36;;;;;;;25.38;22.92;;;20.90;99.90;;;;;;5006353;28;20060;-71
2022/07/22 00:59:07;;;;;;;28.50;25.60;;;20.90;99.90;;;;;;5007364;28;20034;-66
2022/07/22 01:01:34;;;;;;;30.92;23.52;;;20.90;99.90;;;;;;5010499;28;20041;-68
2022/07/22 01:04:01;;;;;;;28.95;25.85;;;20.90;99.90;;;;;;5006987;28;20100;-71
2022/07/22 01:06:30;;;;;;;26.38;23.70;;;20.80;99.90;;;;;;5010726;28;20950;-66
2022/07/22 01:08:57;;;;;;;29.02;24.95;;;20.80;99.90;;;;;;5009489;28;20041;-67
2022/07/22 01:11:26;;;;;;;27.33;24.48;;;20.80;99.90;;;;;;5008248;28;20054;-67
2022/07/22 01:13:54;;;;;;;30.70;25.92;;;20.80;99.90;;;;;;5005324;28;20064;-66
2022/07/22 01:16:22;;;;;;;30.13;26.02;;;20.80;99.90;;;;;;5007133;28;20452;-66
2022/07/22 01:18:51;;;;;;;29.90;26.70;;;20.80;99.90;;;;;;5009185;28;22041;-66
2022/07/22 01:21:19;;;;;;;27.83;24.92;;;20.80;99.90;;;;;;5008056;28;20069;-66
2022/07/22 01:23:46;;;;;;;29.23;24.95;;;20.80;99.90;;;;;;5010935;28;20097;-66
2022/07/22 01:26:13;;;;;;;29.05;25.27;;;20.80;99.90;;;;;;5007401;28;20080;-68
2022/07/22 01:28:41;;;;;;;29.52;26.60;;;20.80;99.90;;;;;;5006044;28;20038;-67
2022/07/22 01:31:08;;;;;;;30.42;25.83;;;20.80;99.90;;;;;;5005501;28;20049;-66
2022/07/22 01:33:35;;;;;;;31.48;26.52;;;20.70;99.90;;;;;;4997739;28;20026;-66
2022/07/22 01:36:03;;;;;;;29.73;26.42;;;20.70;99.90;;;;;;4999176;28;20141;-66
2022/07/22 01:38:30;;;;;;;28.30;24.27;;;20.70;99.90;;;;;;4991778;28;20053;-72
2022/07/22 01:40:57;;;;;;;31.20;25.50;;;20.70;99.90;;;;;;5013048;28;20158;-67
2022/07/22 01:43:26;;;;;;;29.70;25.30;;;20.70;99.90;;;;;;4999886;28;20042;-72
2022/07/22 01:45:54;;;;;;;38.63;27.27;;;20.70;99.90;;;;;;4997795;28;20045;-67
2022/07/22 01:48:22;;;;;;;31.52;27.77;;;20.60;99.90;;;;;;5002369;28;20065;-67
2022/07/22 01:50:49;;;;;;;33.95;27.02;;;20.60;99.90;;;;;;5003867;28;20038;-69
2022/07/22 01:53:17;;;;;;;28.98;25.98;;;20.60;99.90;;;;;;5008541;28;20046;-66
2022/07/22 01:55:45;;;;;;;32.67;27.08;;;20.60;99.90;;;;;;4997645;28;20125;-66
2022/07/22 01:58:13;;;;;;;30.67;27.50;;;20.50;99.90;;;;;;5005480;28;20416;-71
2022/07/22 02:00:41;;;;;;;35.40;27.40;;;20.50;99.90;;;;;;5003291;28;20093;-68
2022/07/22 02:03:08;;;;;;;30.13;26.92;;;20.50;99.90;;;;;;5001694;28;20137;-67
2022/07/22 02:05:37;;;;;;;31.27;25.42;;;20.40;99.90;;;;;;5002196;28;20049;-66
2022/07/22 02:08:15;;;;;;;31.45;24.30;;;20.40;99.90;;;;;;4997536;28;20061;-66
2022/07/22 02:11:02;;;;;;;33.80;26.27;;;20.40;99.90;;;;;;4999299;28;20126;-67
2022/07/22 02:13:29;;;;;;;31.17;27.25;;;20.40;99.90;;;;;;5006178;28;20590;-73
2022/07/22 02:15:56;;;;;;;32.05;27.38;;;20.40;99.90;;;;;;4998000;28;20049;-66
2022/07/22 02:18:23;;;;;;;32.60;25.52;;;20.40;99.90;;;;;;5008799;28;20050;-66
2022/07/22 02:20:50;;;;;;;33.97;27.33;;;20.40;99.90;;;;;;4994929;28;20046;-66
2022/07/22 02:23:18;;;;;;;37.28;29.13;;;20.30;99.90;;;;;;4995541;28;20038;-66
2022/07/22 02:25:45;;;;;;;31.02;27.75;;;20.30;99.90;;;;;;5008137;28;20056;-66
2022/07/22 02:28:12;;;;;;;37.88;25.58;;;20.30;99.90;;;;;;5011271;28;20097;-66
2022/07/22 02:30:39;;;;;;;31.55;26.02;;;20.30;99.90;;;;;;5012256;28;20049;-68
2022/07/22 02:33:06;;;;;;;32.67;26.98;;;20.30;99.90;;;;;;5009319;28;20077;-67
2022/07/22 02:35:35;;;;;;;31.33;28.10;;;20.30;99.90;;;;;;5003897;28;20205;-67
2022/07/22 02:38:04;;;;;;;28.70;25.25;;;20.30;99.90;;;;;;5010007;28;20064;-73
2022/07/22 02:40:32;;;;;;;28.42;25.52;;;20.30;99.90;;;;;;5002238;28;20043;-68
2022/07/22 02:43:00;;;;;;;28.98;25.95;;;20.30;99.90;;;;;;5021514;28;20042;-71
2022/07/22 02:45:27;;;;;;;30.63;25.65;;;20.30;99.90;;;;;;5008313;28;20043;-67
2022/07/22 02:47:55;;;;;;;33.58;26.70;;;20.40;99.90;;;;;;5009297;28;20045;-69
2022/07/22 02:50:24;;;;;;;31.07;25.87;;;20.30;99.90;;;;;;5009678;28;20080;-67
2022/07/22 02:52:52;;;;;;;31.67;26.48;;;20.30;99.90;;;;;;4996646;28;20436;-69
2022/07/22 02:55:22;;;;;;;30.08;26.80;;;20.30;99.90;;;;;;5004594;28;20088;-66
2022/07/22 02:57:51;;;;;;;38.35;26.13;;;20.30;99.90;;;;;;5009306;28;20065;-66
2022/07/22 03:00:18;;;;;;;27.85;24.23;;;20.30;99.90;;;;;;5003110;28;20112;-67
2022/07/22 03:02:47;;;;;;;27.65;24.95;;;20.30;99.90;;;;;;5008529;28;20057;-68
2022/07/22 03:05:14;;;;;;;27.85;24.80;;;20.30;99.90;;;;;;5010202;28;20061;-67
2022/07/22 03:07:48;;;;;;;29.70;26.27;;;20.40;99.90;;;;;;5011989;28;20054;-67
2022/07/22 03:10:16;;;;;;;26.05;23.23;;;20.40;99.90;;;;;;5011648;28;20072;-69
2022/07/22 03:12:43;;;;;;;33.78;26.27;;;20.40;99.90;;;;;;5008149;28;20053;-68
2022/07/22 03:15:10;;;;;;;26.08;23.42;;;20.40;99.90;;;;;;5011587;28;20092;-67
2022/07/22 03:17:37;;;;;;;26.75;23.80;;;20.40;99.90;;;;;;5011359;28;20091;-68
2022/07/22 03:20:08;;;;;;;26.70;23.67;;;20.40;99.90;;;;;;5009477;28;20052;-67
2022/07/22 03:22:35;;;;;;;27.15;23.63;;;20.40;99.90;;;;;;5012008;28;20132;-66
2022/07/22 03:25:04;;;;;;;27.05;24.38;;;20.40;99.90;;;;;;5011550;28;20042;-68
2022/07/22 03:27:31;;;;;;;26.77;22.65;;;20.50;99.90;;;;;;5009584;28;20180;-66
2022/07/22 03:29:59;;;;;;;30.25;24.67;;;20.50;99.90;;;;;;5008204;28;20461;-68
2022/07/22 03:32:26;;;;;;;26.52;23.77;;;20.50;99.90;;;;;;5008909;28;20121;-66
2022/07/22 03:34:53;;;;;;;28.75;24.13;;;20.60;99.90;;;;;;5008412;28;20034;-66
2022/07/22 03:37:31;;;;;;;27.58;23.92;;;20.60;99.90;;;;;;5003607;28;20100;-67
2022/07/22 03:39:58;;;;;;;28.38;22.65;;;20.70;99.90;;;;;;5000951;28;20049;-66
2022/07/22 03:42:25;;;;;;;25.92;23.05;;;20.70;99.90;;;;;;5007718;28;20137;-66
2022/07/22 03:44:52;;;;;;;28.77;26.05;;;20.70;99.90;;;;;;5006014;28;20070;-67
2022/07/22 03:47:22;;;;;;;34.33;25.63;;;20.80;99.90;;;;;;5005483;28;20056;-67
2022/07/22 03:49:50;;;;;;;29.50;23.40;;;20.80;99.90;;;;;;5008538;28;20101;-66
2022/07/22 03:52:23;;;;;;;27.05;22.48;;;20.80;99.90;;;;;;5004873;28;20368;-70
2022/07/22 03:54:50;;;;;;;26.58;21.85;;;20.90;99.90;;;;;;5010618;28;20046;-66
2022/07/22 03:57:18;;;;;;;30.60;23.70;;;20.90;99.90;;;;;;5008947;28;20056;-66
2022/07/22 03:59:46;;;;;;;25.88;23.05;;;20.90;99.90;;;;;;5007964;28;20034;-66
2022/07/22 04:02:13;;;;;;;24.92;22.42;;;21.00;99.90;;;;;;5007805;28;20461;-66
2022/07/22 04:04:41;;;;;;;26.73;23.88;;;21.00;99.90;;;;;;5001606;28;20037;-67
2022/07/22 04:07:08;;;;;;;27.38;24.13;;;21.10;99.90;;;;;;5009052;28;20152;-66
2022/07/22 04:09:36;;;;;;;29.08;25.52;;;21.10;99.90;;;;;;5010924;28;20133;-66
2022/07/22 04:12:03;;;;;;;31.92;25.90;;;21.10;99.90;;;;;;5004877;28;20041;-66
2022/07/22 04:14:36;;;;;;;25.80;23.00;;;21.10;99.90;;;;;;5008460;28;20412;-66
2022/07/22 04:17:03;;;;;;;24.35;21.83;;;21.20;99.90;;;;;;5011109;28;20042;-69
2022/07/22 04:19:30;;;;;;;26.65;23.80;;;21.20;99.90;;;;;;5005825;28;20431;-66
2022/07/22 04:21:58;;;;;;;22.23;20.00;;;21.20;99.90;;;;;;5006331;28;20057;-66
2022/07/22 04:24:28;;;;;;;23.85;21.02;;;21.30;99.90;;;;;;5009460;28;20105;-66
2022/07/22 04:26:56;;;;;;;24.08;21.45;;;21.30;99.90;;;;;;5004746;28;20054;-66
2022/07/22 04:29:23;;;;;;;21.88;19.67;;;21.30;99.90;;;;;;5006426;28;20045;-69
2022/07/22 04:31:50;;;;;;;22.33;19.60;;;21.40;99.90;;;;;;5001466;28;20050;-66
2022/07/22 04:34:18;;;;;;;24.23;20.08;;;21.50;99.90;;;;;;5007786;28;20050;-73
2022/07/22 04:36:48;;;;;;;22.25;19.88;;;21.50;99.90;;;;;;5008521;28;20044;-67
2022/07/22 04:39:15;;;;;;;21.90;19.73;;;21.50;99.90;;;;;;5009778;28;20045;-66
2022/07/22 04:41:48;;;;;;;23.08;19.13;;;21.60;99.90;;;;;;5000260;28;20041;-70
2022/07/22 04:44:17;;;;;;;22.30;18.10;;;21.70;99.90;;;;;;5022941;28;20124;-67
2022/07/22 04:46:44;;;;;;;21.02;17.52;;;21.80;99.90;;;;;;5010544;28;20092;-69
2022/07/22 04:49:11;;;;;;;22.10;19.05;;;21.80;99.90;;;;;;5008252;28;20046;-66
2022/07/22 04:51:39;;;;;;;19.70;17.45;;;21.90;99.90;;;;;;5008317;28;20150;-66
2022/07/22 04:54:09;;;;;;;19.40;15.45;;;22.00;99.90;;;;;;5006469;28;20058;-68
2022/07/22 04:56:40;;;;;;;21.15;14.77;;;22.10;99.90;;;;;;5001961;28;20072;-66
2022/07/22 04:59:08;;;;;;;19.60;13.77;;;22.20;99.90;;;;;;5005795;28;20156;-66
2022/07/22 05:01:36;;;;;;;15.45;13.70;;;22.30;99.90;;;;;;5008248;28;20042;-66
2022/07/22 05:04:05;;;;;;;14.83;13.33;;;22.40;99.90;;;;;;5007338;28;20050;-66
2022/07/22 05:06:32;;;;;;;15.13;13.68;;;22.50;99.90;;;;;;5007557;28;20383;-67
2022/07/22 05:09:00;;;;;;;18.02;12.82;;;22.50;99.90;;;;;;5009527;28;20041;-66
2022/07/22 05:11:30;;;;;;;14.27;13.07;;;22.60;99.90;;;;;;5007412;28;20085;-69
2022/07/22 05:13:57;;;;;;;17.10;14.27;;;22.70;99.90;;;;;;5004286;28;20046;-66
2022/07/22 05:16:24;;;;;;;15.45;13.15;;;22.70;99.90;;;;;;5003881;28;20530;-69
2022/07/22 05:18:51;;;;;;;17.45;14.93;;;22.80;99.90;;;;;;5008547;28;20133;-65
2022/07/22 05:21:20;;;;;;;17.50;13.98;;;22.80;99.90;;;;;;5006096;28;20474;-66
2022/07/22 05:23:47;;;;;;;17.20;12.80;;;22.80;99.90;;;;;;5009122;28;20350;-66
2022/07/22 05:26:16;;;;;;;16.00;11.70;;;22.90;99.90;;;;;;5008481;28;20587;-66
2022/07/22 05:28:42;;;;;;;13.75;11.85;;;22.90;99.90;;;;;;5006934;28;20044;-66
2022/07/22 05:31:09;;;;;;;13.27;9.50;;;23.00;99.90;;;;;;5009154;28;20056;-67
2022/07/22 05:33:37;;;;;;;11.15;10.15;;;23.10;99.90;;;;;;5003612;28;20045;-68
2022/07/22 05:36:10;;;;;;;12.35;11.23;;;23.20;99.90;;;;;;5000680;28;20062;-66
2022/07/22 05:38:43;;;;;;;8.85;7.90;;;23.20;99.90;;;;;;5003227;28;20046;-67
2022/07/22 05:41:10;;;;;;;10.77;8.48;;;23.20;99.90;;;;;;5008410;28;20361;-66
2022/07/22 05:43:37;;;;;;;8.98;8.07;;;23.20;99.90;;;;;;5004104;28;20432;-66
2022/07/22 05:46:07;;;;;;;9.30;8.05;;;23.10;99.90;;;;;;5004021;28;20049;-67
2022/07/22 05:48:34;;;;;;;8.90;7.93;;;23.10;99.90;;;;;;4997229;28;20141;-66
2022/07/22 05:51:01;;;;;;;9.25;8.35;;;23.10;99.90;;;;;;5004309;28;20045;-67
2022/07/22 05:53:31;;;;;;;8.30;6.53;;;23.10;99.90;;;;;;5008407;28;20038;-66
2022/07/22 05:55:58;;;;;;;6.97;6.35;;;23.10;99.90;;;;;;5001081;28;20090;-66
2022/07/22 05:58:33;;;;;;;8.82;6.22;;;23.10;99.90;;;;;;5003365;28;20138;-67
2022/07/22 06:01:00;;;;;;;8.13;4.93;;;23.10;99.90;;;;;;5006793;28;20046;-68
2022/07/22 06:03:27;;;;;;;7.18;5.72;;;23.10;99.90;;;;;;5009216;28;20033;-68
2022/07/22 06:05:54;;;;;;;5.47;4.97;;;23.10;99.90;;;;;;5002818;28;20057;-71
2022/07/22 06:08:21;;;;;;;12.77;5.65;;;23.20;99.90;;;;;;5007396;28;20111;-66
2022/07/22 06:10:50;;;;;;;5.38;4.95;;;23.30;99.90;;;;;;5008677;28;20075;-66
2022/07/22 06:13:17;;;;;;;5.40;3.65;;;23.20;99.90;;;;;;5005229;28;20391;-66
2022/07/22 06:15:44;;;;;;;5.35;4.80;;;23.20;99.90;;;;;;5006301;28;20144;-71
2022/07/22 06:18:12;;;;;;;4.65;4.22;;;23.30;99.90;;;;;;5002375;28;20069;-67
2022/07/22 06:20:39;;;;;;;5.10;4.68;;;23.30;99.90;;;;;;5007346;28;20929;-67
2022/07/22 06:23:06;;;;;;;5.40;4.65;;;23.40;99.90;;;;;;5007686;28;20042;-66
2022/07/22 06:25:34;;;;;;;5.38;4.35;;;23.30;99.90;;;;;;5008777;28;20116;-66
2022/07/22 06:28:30;;;;;;;6.07;5.53;;;23.30;99.90;;;;;;5004088;28;20056;-70
2022/07/22 06:30:57;;;;;;;5.38;4.88;;;23.30;99.90;;;;;;5006015;28;20038;-67
2022/07/22 06:33:26;;;;;;;5.32;4.88;;;23.30;99.90;;;;;;5006417;28;20112;-68
2022/07/22 06:35:53;;;;;;;5.75;4.57;;;23.30;99.90;;;;;;5006514;28;20116;-68
2022/07/22 06:38:21;;;;;;;5.18;4.70;;;23.30;99.90;;;;;;5005104;28;20040;-66
2022/07/22 06:41:19;;;;;;;6.47;4.93;;;23.30;99.90;;;;;;5008309;28;20095;-67
2022/07/22 06:44:05;;;;;;;7.40;5.45;;;23.40;99.90;;;;;;5003797;28;20121;-66
2022/07/22 06:46:46;;;;;;;6.10;5.13;;;23.40;99.90;;;;;;5006175;28;20038;-66
2022/07/22 06:49:16;;;;;;;5.25;4.70;;;23.50;99.90;;;;;;5003887;28;20449;-66
2022/07/22 06:51:44;;;;;;;4.68;4.28;;;23.50;99.90;;;;;;5003688;28;20053;-66
2022/07/22 06:54:11;;;;;;;5.60;4.78;;;23.40;99.90;;;;;;5006389;28;20037;-66
2022/07/22 06:56:38;;;;;;;8.52;5.53;;;23.40;99.90;;;;;;5007733;28;20069;-65
2022/07/22 06:59:08;;;;;;;5.57;5.07;;;23.40;99.90;;;;;;5003250;28;20129;-65
2022/07/22 07:01:35;;;;;;;6.55;4.45;;;23.20;99.90;;;;;;5004405;28;20443;-67
2022/07/22 07:04:02;;;;;;;5.60;4.85;;;23.10;99.90;;;;;;5005743;28;20421;-67
2022/07/22 07:06:30;;;;;;;5.10;4.63;;;23.10;99.90;;;;;;5004664;28;20092;-67
2022/07/22 07:08:57;;;;;;;5.78;5.10;;;23.10;99.90;;;;;;5006969;28;20113;-66
2022/07/22 07:11:26;;;;;;;5.57;5.07;;;23.10;99.90;;;;;;5011117;28;20056;-68
2022/07/22 07:13:54;;;;;;;4.95;4.50;;;23.10;99.90;;;;;;5006012;28;20128;-68
2022/07/22 07:16:21;;;;;;;6.60;5.35;;;23.10;99.90;;;;;;5025110;28;20049;-67
2022/07/22 07:18:48;;;;;;;6.03;4.82;;;22.90;99.90;;;;;;5001330;28;20464;-66
2022/07/22 07:21:15;;;;;;;6.22;5.15;;;22.80;99.90;;;;;;5005601;28;20073;-68
2022/07/22 07:23:42;;;;;;;9.85;5.70;;;22.80;99.90;;;;;;5008345;28;20041;-68
2022/07/22 07:26:09;;;;;;;6.15;4.93;;;22.80;99.90;;;;;;5011298;28;20046;-67
2022/07/22 07:28:36;;;;;;;8.35;5.88;;;22.70;99.90;;;;;;5006823;28;20556;-66
2022/07/22 07:31:09;;;;;;;7.15;6.43;;;22.80;99.90;;;;;;5008867;28;20050;-67
2022/07/22 07:33:36;;;;;;;10.07;6.80;;;22.80;99.90;;;;;;5008932;28;20461;-66
2022/07/22 07:36:03;;;;;;;8.90;6.25;;;22.90;99.90;;;;;;5005733;28;20077;-70
2022/07/22 07:38:39;;;;;;;8.88;6.03;;;22.90;99.90;;;;;;5017325;28;20046;-66
2022/07/22 07:41:10;;;;;;;7.13;5.63;;;22.90;99.90;;;;;;5006708;28;20054;-67
2022/07/22 07:43:39;;;;;;;7.65;6.72;;;23.00;99.90;;;;;;4998519;28;20050;-66
2022/07/22 07:46:06;;;;;;;7.70;6.35;;;23.00;99.90;;;;;;5009752;28;20040;-66
2022/07/22 07:48:34;;;;;;;7.18;5.45;;;23.10;99.90;;;;;;5010207;28;20038;-70
2022/07/22 07:51:01;;;;;;;6.45;5.72;;;23.10;99.90;;;;;;5007160;28;20444;-67
2022/07/22 07:53:28;;;;;;;7.97;5.85;;;22.90;99.90;;;;;;5001229;28;20533;-67
2022/07/22 07:55:55;;;;;;;8.10;5.97;;;22.80;99.90;;;;;;5005920;28;20041;-68
2022/07/22 07:58:22;;;;;;;10.57;6.10;;;22.70;99.90;;;;;;4999303;28;20046;-67
2022/07/22 08:00:50;;;;;;;7.78;5.63;;;22.60;99.90;;;;;;5007526;28;20136;-67
2022/07/22 08:03:17;;;;;;;9.25;5.78;;;22.50;99.90;;;;;;5008323;28;20137;-66
2022/07/22 08:05:44;;;;;;;21.73;6.93;;;22.50;99.90;;;;;;5000276;28;20120;-67
2022/07/22 08:08:20;;;;;;;7.53;6.13;;;22.50;99.90;;;;;;5008262;28;20104;-67
2022/07/22 08:10:48;;;;;;;9.52;5.72;;;22.50;99.90;;;;;;4991997;28;20065;-66
2022/07/22 08:13:46;;;;;;;6.35;5.53;;;22.40;99.90;;;;;;4997990;28;20057;-66
2022/07/22 08:16:28;;;;;;;7.82;6.75;;;22.40;99.90;;;;;;5005861;28;20046;-67
2022/07/22 08:18:55;;;;;;;6.45;5.65;;;22.30;99.90;;;;;;5009723;28;20045;-66
2022/07/22 08:21:25;;;;;;;7.03;6.32;;;22.30;99.90;;;;;;5004824;28;20056;-71
2022/07/22 08:23:56;;;;;;;13.95;7.93;;;22.10;99.90;;;;;;5006117;28;20037;-66
2022/07/22 08:26:24;;;;;;;7.80;5.57;;;22.00;99.90;;;;;;5009743;28;20041;-67
2022/07/22 08:28:58;;;;;;;7.15;5.90;;;21.90;99.90;;;;;;4998997;28;20049;-67
2022/07/22 08:31:28;;;;;;;10.15;7.00;;;21.90;99.90;;;;;;5006190;28;20042;-69
2022/07/22 08:33:59;;;;;;;7.70;6.32;;;21.90;99.90;;;;;;5009429;28;20061;-70
2022/07/22 08:36:27;;;;;;;8.05;7.25;;;21.90;99.90;;;;;;5005544;28;20168;-72
2022/07/22 08:38:55;;;;;;;6.57;5.93;;;21.90;99.90;;;;;;5007136;28;20141;-69
2022/07/22 08:41:24;;;;;;;8.85;5.50;;;22.00;99.90;;;;;;4997680;28;20041;-66
2022/07/22 08:43:52;;;;;;;6.72;5.43;;;22.10;99.90;;;;;;5006461;28;20061;-67
2022/07/22 08:46:19;;;;;;;11.70;6.38;;;22.20;99.90;;;;;;5008601;28;20400;-67
2022/07/22 08:49:12;;;;;;;8.35;6.13;;;22.20;99.90;;;;;;5004779;28;20046;-66
2022/07/22 08:52:01;;;;;;;7.88;5.70;;;22.10;99.90;;;;;;4999917;28;20168;-66
2022/07/22 08:54:35;;;;;;;10.32;5.63;;;22.20;99.90;;;;;;5006057;28;20076;-67
2022/07/22 08:57:02;;;;;;;6.80;5.65;;;22.20;99.90;;;;;;5000677;28;20463;-68
2022/07/22 08:59:29;;;;;;;7.57;6.10;;;22.10;99.90;;;;;;5005602;28;20046;-66
2022/07/22 09:02:02;;;;;;;12.07;6.43;;;22.10;99.90;;;;;;5019354;28;20112;-69
2022/07/22 09:04:31;;;;;;;5.53;5.00;;;22.10;99.90;;;;;;5007585;28;20416;-67
2022/07/22 09:06:58;;;;;;;6.22;5.10;;;22.10;99.90;;;;;;5005596;28;20602;-66
2022/07/22 09:09:33;;;;;;;6.82;5.07;;;22.20;99.90;;;;;;4999004;28;20042;-66
2022/07/22 09:12:07;;;;;;;6.55;5.32;;;22.30;99.90;;;;;;5007526;28;20057;-67
2022/07/22 09:14:58;;;;;;;8.20;4.88;;;22.40;99.90;;;;;;4999592;28;20041;-66
2022/07/22 09:17:54;;;;;;;6.82;4.38;;;22.50;99.90;;;;;;4995356;28;20046;-68
2022/07/22 09:20:36;;;;;;;4.78;4.38;;;22.70;99.90;;;;;;4999750;28;20042;-69
2022/07/22 09:23:23;;;;;;;6.15;5.03;;;22.70;99.90;;;;;;5007255;28;20048;-67
2022/07/22 09:25:53;;;;;;;6.93;5.13;;;22.80;99.90;;;;;;5007893;28;20487;-66
2022/07/22 09:28:22;;;;;;;6.28;5.68;;;22.80;99.90;;;;;;5000482;28;20192;-70
2022/07/22 09:31:23;;;;;;;;;;;22.90;99.90;;;;;;5005930;28;20151;-66
2022/07/22 09:33:59;;;;;;;4.15;3.75;;;23.00;99.90;;;;;;5004028;28;20276;-66
2022/07/22 09:36:29;;;;;;;4.18;3.88;;;23.00;99.90;;;;;;5005337;28;20050;-66
2022/07/22 09:38:57;;;;;;;3.78;3.42;;;23.10;99.90;;;;;;5001644;28;20439;-66
2022/07/22 09:41:25;;;;;;;5.22;4.72;;;23.10;99.90;;;;;;5003513;28;20041;-69
2022/07/22 09:43:52;;;;;;;6.57;4.45;;;23.20;99.90;;;;;;5003500;28;20050;-70
2022/07/22 09:46:39;;;;;;;5.75;3.90;;;23.30;99.90;;;;;;5005158;28;20044;-67
2022/07/22 09:49:35;;;;;;;4.75;4.20;;;23.40;99.90;;;;;;5005975;28;20073;-67
2022/07/22 09:52:21;;;;;;;4.95;3.88;;;23.40;99.90;;;;;;5000421;28;20057;-67
2022/07/22 09:55:00;;;;;;;5.82;4.22;;;23.50;99.90;;;;;;5006207;28;20046;-70
2022/07/22 09:57:34;;;;;;;4.50;4.10;;;23.40;99.90;;;;;;5003767;28;20570;-66
2022/07/22 10:00:01;;;;;;;5.95;4.63;;;23.50;99.90;;;;;;5004014;28;20081;-66
2022/07/22 10:03:10;;;;;;;5.03;3.38;;;23.80;99.90;;;;;;4998985;28;20380;-66
2022/07/22 10:05:40;;;;;;;3.85;3.35;;;24.00;99.90;;;;;;5006452;28;20042;-67
2022/07/22 10:08:09;;;;;;;6.10;4.80;;;24.10;99.90;;;;;;5003493;28;20050;-66
2022/07/22 10:10:38;;;;;;;4.15;3.83;;;24.10;99.90;;;;;;5004760;28;20041;-66
2022/07/22 10:13:06;;;;;;;6.07;5.38;;;24.10;99.90;;;;;;5007317;28;20590;-70
2022/07/22 10:15:35;;;;;;;5.07;4.15;;;24.10;99.90;;;;;;4996772;28;20657;-67
2022/07/22 10:18:13;;;;;;;4.70;4.30;;;24.10;99.90;;;;;;5005597;28;20046;-69
2022/07/22 10:20:41;;;;;;;4.68;4.28;;;24.10;99.90;;;;;;5004975;28;20059;-67
2022/07/22 10:23:09;;;;;;;10.25;4.65;;;24.30;99.90;;;;;;5007896;28;20096;-66
2022/07/22 10:26:01;;;;;;;7.68;4.60;;;24.40;99.90;;;;;;4996321;28;20038;-67
2022/07/22 10:28:32;;;;;;;4.03;3.67;;;24.80;99.90;;;;;;5000288;28;20041;-68
2022/07/22 10:31:24;;;;;;;4.75;3.85;;;25.00;99.90;;;;;;4998439;28;20069;-66
2022/07/22 10:33:56;;;;;;;4.32;3.78;;;25.10;99.90;;;;;;5008295;28;20084;-67
2022/07/22 10:36:36;;;;;;;4.28;3.88;;;25.30;99.90;;;;;;5008022;28;20068;-67
2022/07/22 10:39:07;;;;;;;4.40;4.00;;;25.30;99.90;;;;;;5003515;28;20054;-67
2022/07/22 10:41:36;;;;;;;5.85;4.15;;;25.30;99.90;;;;;;5009229;28;20050;-67
2022/07/22 10:44:04;;;;;;;4.88;4.47;;;25.40;99.90;;;;;;5010855;28;20042;-66
2022/07/22 10:46:51;;;;;;;4.50;4.10;;;25.40;99.90;;;;;;5006993;28;20041;-66
2022/07/22 10:49:21;;;;;;;4.70;4.30;;;25.60;99.90;;;;;;5009193;28;20169;-67
2022/07/22 10:52:32;;;;;;;6.28;3.92;;;25.90;99.90;;;;;;5004966;28;20042;-67
2022/07/22 10:55:17;;;;;;;5.47;3.72;;;25.90;99.90;;;;;;4989979;28;20062;-66
2022/07/22 10:57:44;;;;;;;3.58;3.30;;;25.90;99.90;;;;;;5011870;28;20110;-68
2022/07/22 11:00:13;;;;;;;5.80;4.97;;;25.90;99.90;;;;;;5011149;28;20431;-66
2022/07/22 11:02:40;;;;;;;5.38;4.05;;;25.80;99.90;;;;;;5011568;28;20045;-66
2022/07/22 11:05:08;;;;;;;7.03;4.32;;;25.70;99.90;;;;;;5012905;28;20034;-66
2022/07/22 11:07:46;;;;;;;4.38;3.47;;;25.80;99.90;;;;;;5009108;28;20148;-67
2022/07/22 11:10:15;;;;;;;5.47;4.25;;;25.80;99.90;;;;;;5010761;28;20104;-66
2022/07/22 11:12:48;;;;;;;4.38;4.07;;;25.80;99.90;;;;;;5012990;28;20073;-67
2022/07/22 11:15:16;;;;;;;4.10;3.50;;;25.70;99.90;;;;;;5006193;28;20112;-67
2022/07/22 11:17:43;;;;;;;3.85;3.28;;;25.50;99.90;;;;;;4998375;28;20417;-68
2022/07/22 11:20:12;;;;;;;6.03;4.35;;;25.40;99.90;;;;;;5010407;28;20057;-67
2022/07/22 11:22:39;;;;;;;3.47;3.17;;;25.30;99.90;;;;;;5011209;28;20053;-66
2022/07/22 11:25:10;;;;;;;4.35;3.95;;;25.20;99.90;;;;;;5010131;28;20038;-67
2022/07/22 11:27:37;;;;;;;4.28;3.40;;;25.00;99.90;;;;;;5005694;28;20325;-69
2022/07/22 11:30:06;;;;;;;4.25;3.85;;;25.00;99.90;;;;;;5010194;28;20149;-67
2022/07/22 11:32:41;;;;;;;6.07;5.10;;;25.00;99.90;;;;;;5003402;28;20653;-66
2022/07/22 11:35:13;;;;;;;6.10;3.75;;;24.80;99.90;;;;;;5010488;28;20034;-66
2022/07/22 11:37:40;;;;;;;5.50;5.00;;;24.80;99.90;;;;;;5010737;28;20057;-68
2022/07/22 11:40:08;;;;;;;4.68;4.10;;;24.90;99.90;;;;;;5008139;28;20116;-66
2022/07/22 11:42:36;;;;;;;6.05;4.35;;;24.90;99.90;;;;;;5012670;28;20062;-67
2022/07/22 11:45:03;;;;;;;7.72;4.35;;;25.00;99.90;;;;;;5010057;28;20030;-67
2022/07/22 11:47:30;;;;;;;4.28;3.70;;;25.00;99.90;;;;;;5007964;28;20046;-66
2022/07/22 11:49:57;;;;;;;4.68;3.80;;;25.00;99.90;;;;;;5007673;28;20033;-66
2022/07/22 11:52:24;;;;;;;6.82;4.85;;;25.00;99.90;;;;;;5011151;28;20100;-66
2022/07/22 11:54:51;;;;;;;5.20;4.07;;;24.80;99.90;;;;;;5008545;28;20102;-66
2022/07/22 11:57:18;;;;;;;4.80;3.70;;;24.70;99.90;;;;;;5010693;28;20033;-67
2022/07/22 11:59:45;;;;;;;4.85;4.00;;;24.80;99.90;;;;;;5006230;28;20118;-67
2022/07/22 12:02:13;;;;;;;4.68;4.28;;;25.00;99.90;;;;;;5005157;28;20594;-69
2022/07/22 12:04:42;;;;;;;6.45;4.50;;;25.10;99.90;;;;;;5011121;28;20113;-66
2022/07/22 12:07:12;;;;;;;4.47;4.18;;;25.40;99.90;;;;;;5010315;28;20809;-66
2022/07/22 12:09:42;;;;;;;4.63;4.13;;;25.50;99.90;;;;;;5009850;28;20038;-67
2022/07/22 12:12:09;;;;;;;;;;;25.80;99.90;;;;;;5007551;28;20412;-68
2022/07/22 12:14:36;;;;;;;6.28;4.85;;;25.90;99.90;;;;;;4993028;28;19941;-66
2022/07/22 12:17:05;;;;;;;4.45;4.03;;;26.20;99.90;;;;;;5004510;28;20057;-68
2022/07/22 12:19:34;;;;;;;4.05;3.65;;;26.40;99.90;;;;;;5002461;28;20038;-67
2022/07/22 12:22:18;;;;;;;4.78;4.03;;;26.60;99.90;;;;;;5003071;28;20108;-66
2022/07/22 12:25:00;;;;;;;9.52;4.05;;;26.60;99.90;;;;;;5009491;28;20084;-66
2022/07/22 12:27:27;;;;;;;3.92;3.53;;;26.30;99.90;;;;;;5003384;28;20049;-72
2022/07/22 12:29:54;;;;;;;4.28;3.88;;;26.40;99.90;;;;;;5003619;28;20069;-70
2022/07/22 12:32:27;;;;;;;5.22;4.63;;;26.70;99.90;;;;;;4998955;28;20042;-66
2022/07/22 12:34:54;;;;;;;5.47;3.67;;;26.80;99.90;;;;;;5009016;28;20068;-66
2022/07/22 12:37:29;;;;;;;6.13;3.45;;;27.00;99.90;;;;;;5010373;28;20053;-67
2022/07/22 12:39:56;;;;;;;4.18;3.78;;;26.90;99.90;;;;;;5009361;28;20102;-73
2022/07/22 12:42:26;;;;;;;4.53;4.13;;;27.10;99.90;;;;;;5008032;28;20096;-67
2022/07/22 12:45:01;;;;;;;4.55;3.83;;;26.90;99.90;;;;;;5010757;28;20033;-70
2022/07/22 12:47:48;;;;;;;4.78;4.32;;;26.90;99.90;;;;;;5019721;28;20034;-68
2022/07/22 12:50:23;;;;;;;7.35;4.70;;;26.60;99.90;;;;;;5010210;28;20049;-69
2022/07/22 12:52:54;;;;;;;6.28;4.03;;;26.60;99.90;;;;;;5011172;28;20042;-66